createdAt,value
2019-03-22T00:01:47.932Z,11.60
2019-03-22T00:04:18.120Z,11.50
2019-03-22T00:06:48.301Z,11.50
2019-03-22T00:09:18.809Z,11.50
2019-03-22T00:11:48.996Z,11.50
2019-03-22T00:14:19.463Z,11.50
2019-03-22T00:16:49.730Z,11.50
2019-03-22T00:19:20.259Z,11.50
2019-03-22T00:21:50.455Z,11.50
2019-03-22T00:24:20.628Z,11.50
2019-03-22T00:26:51.044Z,11.50
2019-03-22T00:29:21.225Z,11.40
2019-03-22T00:31:51.427Z,11.40
2019-03-22T00:34:21.631Z,11.40
2019-03-22T00:36:51.884Z,11.40
2019-03-22T00:39:22.067Z,11.40
2019-03-22T00:41:52.249Z,11.40
2019-03-22T00:44:22.425Z,11.40
2019-03-22T00:46:52.588Z,11.30
2019-03-22T00:49:22.790Z,11.30
2019-03-22T00:51:52.951Z,11.30
2019-03-22T00:54:23.699Z,11.30
2019-03-22T00:56:53.894Z,11.30
2019-03-22T00:59:24.202Z,11.30
2019-03-22T01:01:54.385Z,11.30
2019-03-22T01:04:24.576Z,11.30
2019-03-22T01:06:54.778Z,11.30
2019-03-22T01:09:24.963Z,11.30
2019-03-22T01:11:55.137Z,11.30
2019-03-22T01:14:25.311Z,11.30
2019-03-22T01:16:55.492Z,11.20
2019-03-22T01:19:25.692Z,11.20
2019-03-22T01:21:55.841Z,11.20
2019-03-22T01:24:26.044Z,11.20
2019-03-22T01:26:56.203Z,11.20
2019-03-22T01:29:26.502Z,11.20
2019-03-22T01:31:56.668Z,11.20
2019-03-22T01:34:26.880Z,11.20
2019-03-22T01:36:57.104Z,11.20
2019-03-22T01:39:27.295Z,11.10
2019-03-22T01:41:57.495Z,11.10
2019-03-22T01:44:27.677Z,11.10
2019-03-22T01:46:57.997Z,11.10
2019-03-22T01:49:29.296Z,11.10
2019-03-22T01:51:59.560Z,11.10
2019-03-22T01:54:30.238Z,11.10
2019-03-22T01:57:00.536Z,11.10
2019-03-22T01:59:30.720Z,11.10
2019-03-22T02:02:00.889Z,11.10
2019-03-22T02:04:31.088Z,11.10
2019-03-22T02:07:01.264Z,11.10
2019-03-22T02:09:31.477Z,11.00
2019-03-22T02:12:01.732Z,11.10
2019-03-22T02:14:32.004Z,11.10
2019-03-22T02:17:04.188Z,11.10
2019-03-22T02:19:34.431Z,11.10
2019-03-22T02:22:04.804Z,11.10
2019-03-22T02:24:35.130Z,11.00
2019-03-22T02:27:05.447Z,11.10
2019-03-22T02:29:36.667Z,11.00
2019-03-22T02:32:06.976Z,11.10
2019-03-22T02:34:37.243Z,11.00
2019-03-22T02:37:07.492Z,11.10
2019-03-22T02:39:37.863Z,11.00
2019-03-22T02:42:08.301Z,11.00
2019-03-22T02:44:38.572Z,11.00
2019-03-22T02:47:08.881Z,11.00
2019-03-22T02:49:39.083Z,11.00
2019-03-22T02:52:09.318Z,11.00
2019-03-22T02:54:41.347Z,11.00
2019-03-22T02:57:13.179Z,11.00
2019-03-22T02:59:43.483Z,11.00
2019-03-22T03:02:13.895Z,11.00
2019-03-22T03:04:44.144Z,10.90
2019-03-22T03:07:14.557Z,10.90
2019-03-22T03:09:44.845Z,10.80
2019-03-22T03:12:15.116Z,10.80
2019-03-22T03:14:45.565Z,10.80
2019-03-22T03:17:15.886Z,10.70
2019-03-22T03:19:46.123Z,10.70
2019-03-22T03:22:16.472Z,10.60
2019-03-22T03:24:46.724Z,10.70
2019-03-22T03:27:17.842Z,10.60
2019-03-22T03:29:48.081Z,10.60
2019-03-22T03:32:18.349Z,10.60
2019-03-22T03:34:48.613Z,10.50
2019-03-22T03:37:18.903Z,10.50
2019-03-22T03:39:49.242Z,10.50
2019-03-22T03:42:19.550Z,10.50
2019-03-22T03:44:49.803Z,10.50
2019-03-22T03:47:20.168Z,10.50
2019-03-22T03:49:50.418Z,10.40
2019-03-22T03:52:20.823Z,10.40
2019-03-22T03:54:51.397Z,10.40
2019-03-22T03:57:21.646Z,10.40
2019-03-22T03:59:51.897Z,10.40
2019-03-22T04:02:22.249Z,10.40
2019-03-22T04:04:52.606Z,10.40
2019-03-22T04:07:23.833Z,10.40
2019-03-22T04:09:54.099Z,10.40
2019-03-22T04:12:24.349Z,10.40
2019-03-22T04:14:54.601Z,10.40
2019-03-22T04:17:29.409Z,10.40
2019-03-22T04:19:59.736Z,10.40
2019-03-22T04:22:30.026Z,10.40
2019-03-22T04:25:00.520Z,10.40
2019-03-22T04:27:30.920Z,10.30
2019-03-22T04:30:01.351Z,10.40
2019-03-22T04:32:31.674Z,10.30
2019-03-22T04:35:01.928Z,10.30
2019-03-22T04:37:32.178Z,10.30
2019-03-22T04:40:02.431Z,10.20
2019-03-22T04:42:32.669Z,10.20
2019-03-22T04:45:03.160Z,10.10
2019-03-22T04:47:33.646Z,10.10
2019-03-22T04:50:04.350Z,10.10
2019-03-22T04:52:35.048Z,10.10
2019-03-22T04:55:05.676Z,10.00
2019-03-22T04:57:37.074Z,10.00
2019-03-22T05:00:08.616Z,10.00
2019-03-22T05:02:41.112Z,9.90
2019-03-22T05:05:13.204Z,9.90
2019-03-22T05:07:44.611Z,9.90
2019-03-22T05:10:16.625Z,9.90
2019-03-22T05:12:48.511Z,9.90
2019-03-22T05:15:19.731Z,9.90
2019-03-22T05:17:50.440Z,9.90
2019-03-22T05:20:21.835Z,9.90
2019-03-22T05:22:55.259Z,9.90
2019-03-22T05:25:26.879Z,9.90
2019-03-22T05:27:59.867Z,9.80
2019-03-22T05:31:19.052Z,9.80
2019-03-22T05:33:49.308Z,9.80
2019-03-22T05:36:19.620Z,9.80
2019-03-22T05:38:49.917Z,9.70
2019-03-22T05:41:20.158Z,9.70
2019-03-22T05:43:50.400Z,9.70
2019-03-22T05:46:20.737Z,9.70
2019-03-22T05:48:50.984Z,9.70
2019-03-22T05:51:21.240Z,9.60
2019-03-22T05:53:51.547Z,9.60
2019-03-22T05:56:21.877Z,9.60
2019-03-22T05:58:52.148Z,9.60
2019-03-22T06:01:22.596Z,9.60
2019-03-22T06:03:52.816Z,9.60
2019-03-22T06:06:23.059Z,9.60
2019-03-22T06:08:53.546Z,9.60
2019-03-22T06:11:23.948Z,9.50
2019-03-22T06:13:54.492Z,9.50
2019-03-22T06:16:25.044Z,9.40
2019-03-22T06:18:55.284Z,9.40
2019-03-22T06:21:25.624Z,9.40
2019-03-22T06:23:56.295Z,9.40
2019-03-22T06:26:26.725Z,9.30
2019-03-22T06:28:56.973Z,9.20
2019-03-22T06:31:27.253Z,9.20
2019-03-22T06:33:57.596Z,9.20
2019-03-22T06:36:28.191Z,9.20
2019-03-22T06:38:58.420Z,9.10
2019-03-22T06:41:28.857Z,9.10
2019-03-22T06:44:01.381Z,9.10
2019-03-22T06:46:31.704Z,9.10
2019-03-22T06:49:01.948Z,9.10
2019-03-22T06:51:33.264Z,9.20
2019-03-22T06:54:03.576Z,9.20
2019-03-22T06:56:34.395Z,9.20
2019-03-22T06:59:04.712Z,9.30
2019-03-22T07:01:35.108Z,9.40
2019-03-22T07:04:05.487Z,9.50
2019-03-22T07:06:35.828Z,9.60
2019-03-22T07:09:08.992Z,9.70
2019-03-22T07:11:41.711Z,9.80
2019-03-22T07:14:11.664Z,9.90
2019-03-22T07:16:42.988Z,10.00
2019-03-22T07:19:13.310Z,10.10
2019-03-22T07:21:43.808Z,10.20
2019-03-22T07:24:14.062Z,10.40
2019-03-22T07:26:44.320Z,10.60
2019-03-22T07:29:14.557Z,10.80
2019-03-22T07:31:44.809Z,11.00
2019-03-22T07:34:15.112Z,11.30
2019-03-22T07:36:46.957Z,11.50
2019-03-22T07:39:17.496Z,11.70
2019-03-22T07:41:47.776Z,12.00
2019-03-22T07:44:18.028Z,12.30
2019-03-22T07:46:48.444Z,12.70
2019-03-22T07:49:18.683Z,13.10
2019-03-22T07:51:48.959Z,13.50
2019-03-22T07:54:19.237Z,14.00
2019-03-22T07:56:49.647Z,14.50
2019-03-22T07:59:19.941Z,15.10
2019-03-22T08:01:50.309Z,15.70
2019-03-22T08:04:20.629Z,16.30
2019-03-22T08:06:50.882Z,16.90
2019-03-22T08:09:21.219Z,17.60
2019-03-22T08:11:51.488Z,18.20
2019-03-22T08:14:21.729Z,18.80
2019-03-22T08:16:52.207Z,19.30
2019-03-22T08:19:22.568Z,19.90
2019-03-22T08:21:53.087Z,20.40
2019-03-22T08:24:23.315Z,21.00
2019-03-22T08:26:53.602Z,21.60
2019-03-22T08:29:23.856Z,22.20
2019-03-22T08:31:54.977Z,22.90
2019-03-22T08:34:25.281Z,23.50
2019-03-22T08:36:55.682Z,24.10
2019-03-22T08:39:25.937Z,24.60
2019-03-22T08:41:56.177Z,25.10
2019-03-22T08:44:26.499Z,25.70
2019-03-22T08:46:56.789Z,26.20
2019-03-22T08:49:27.311Z,26.70
2019-03-22T08:51:57.730Z,27.10
2019-03-22T08:54:28.001Z,27.60
2019-03-22T08:56:58.237Z,28.00
2019-03-22T08:59:28.525Z,28.40
2019-03-22T09:01:58.767Z,28.90
2019-03-22T09:04:29.085Z,29.30
2019-03-22T09:07:00.423Z,29.60
2019-03-22T09:09:40.918Z,29.90
2019-03-22T09:12:02.697Z,30.20
2019-03-22T09:14:33.034Z,30.50
2019-03-22T09:17:03.355Z,30.80
2019-03-22T09:19:33.597Z,31.00
2019-03-22T09:22:03.928Z,31.30
2019-03-22T09:24:39.294Z,31.50
2019-03-22T09:27:06.155Z,31.70
2019-03-22T09:29:36.506Z,31.90
2019-03-22T09:32:06.848Z,32.20
2019-03-22T09:34:37.110Z,32.40
2019-03-22T09:37:08.985Z,32.60
2019-03-22T09:39:39.446Z,32.80
2019-03-22T09:42:09.861Z,33.00
2019-03-22T09:44:44.639Z,33.20
2019-03-22T09:47:12.280Z,33.30
2019-03-22T09:49:42.740Z,33.50
2019-03-22T09:52:13.094Z,33.70
2019-03-22T09:54:44.431Z,33.90
2019-03-22T09:57:14.652Z,34.00
2019-03-22T09:59:45.045Z,34.20
2019-03-22T10:02:15.335Z,34.30
2019-03-22T10:04:45.591Z,34.40
2019-03-22T10:07:16.044Z,34.50
2019-03-22T10:09:46.372Z,34.70
2019-03-22T10:12:16.621Z,34.70
2019-03-22T10:14:46.919Z,34.80
2019-03-22T11:50:12.732Z,25.50
2019-03-22T11:52:50.139Z,25.30
2019-03-22T12:10:32.824Z,24.70
2019-03-22T12:24:02.653Z,24.10
2019-03-22T12:34:29.275Z,23.80
2019-03-22T12:36:59.528Z,23.70
2019-03-22T12:39:29.760Z,23.60
2019-03-22T13:10:57.541Z,22.80
2019-03-22T13:13:27.787Z,22.70
2019-03-22T13:15:58.019Z,22.60
2019-03-22T13:18:28.263Z,22.60
2019-03-22T13:20:58.513Z,22.60
2019-03-22T13:23:28.772Z,22.60
2019-03-22T15:39:47.163Z,22.30
2019-03-22T15:42:18.667Z,22.30
2019-03-22T15:44:49.315Z,22.30
2019-03-22T15:51:09.436Z,22.30
2019-03-22T15:53:39.803Z,22.30
2019-03-22T15:56:10.112Z,22.30
2019-03-22T15:58:40.329Z,22.30
2019-03-22T16:01:10.659Z,22.30
2019-03-22T16:03:44.352Z,22.30
2019-03-22T16:06:13.000Z,22.30
2019-03-22T16:08:43.331Z,22.30
2019-03-22T16:11:13.586Z,22.30
2019-03-22T16:13:43.802Z,22.30
2019-03-22T16:16:14.508Z,22.30
2019-03-22T16:18:44.794Z,22.30
2019-03-22T16:21:15.115Z,22.30
2019-03-22T16:23:45.348Z,22.30
2019-03-22T16:26:15.744Z,22.30
2019-03-22T16:28:45.962Z,22.30
2019-03-22T16:31:16.282Z,22.20
2019-03-22T16:33:54.026Z,22.20
2019-03-22T16:36:18.468Z,22.20
2019-03-22T16:38:48.781Z,22.20
2019-03-22T16:41:19.011Z,22.20
2019-03-22T16:43:49.231Z,22.20
2019-03-22T16:46:19.523Z,22.10
2019-03-22T16:48:50.770Z,22.10
2019-03-22T16:51:20.995Z,22.10
2019-03-22T16:53:51.231Z,22.10
2019-03-22T16:56:21.448Z,22.00
2019-03-22T16:58:51.676Z,22.00
2019-03-22T17:01:21.996Z,22.00
2019-03-22T17:03:52.334Z,21.90
2019-03-22T17:06:22.638Z,21.90
2019-03-22T17:08:52.868Z,21.90
2019-03-22T17:11:23.098Z,21.80
2019-03-22T17:13:53.348Z,21.80
2019-03-22T17:16:23.661Z,21.80
2019-03-22T17:18:53.953Z,21.70
2019-03-22T17:21:24.177Z,21.70
2019-03-22T17:23:54.443Z,21.60
2019-03-22T17:26:24.667Z,21.60
2019-03-22T17:28:54.903Z,21.50
2019-03-22T17:31:25.138Z,21.50
2019-03-22T17:33:55.364Z,21.40
2019-03-22T17:36:25.587Z,21.30
2019-03-22T17:38:55.901Z,21.30
2019-03-22T17:41:26.140Z,21.20
2019-03-22T17:43:56.439Z,21.10
2019-03-22T17:46:26.747Z,21.10
2019-03-22T17:48:56.975Z,21.00
2019-03-22T17:51:27.225Z,20.90
2019-03-22T17:53:57.479Z,20.80
2019-03-22T17:56:27.692Z,20.80
2019-03-22T17:58:57.915Z,20.70
2019-03-22T18:01:28.192Z,20.60
2019-03-22T18:03:58.424Z,20.50
2019-03-22T18:06:28.668Z,20.50
2019-03-22T18:08:59.968Z,20.40
2019-03-22T18:11:30.196Z,20.30
2019-03-22T18:14:00.445Z,20.20
2019-03-22T18:16:30.658Z,20.20
2019-03-22T18:19:00.912Z,20.10
2019-03-22T18:21:31.208Z,20.00
2019-03-22T18:24:01.445Z,20.00
2019-03-22T18:26:32.631Z,19.90
2019-03-22T18:29:02.923Z,19.90
2019-03-22T18:31:33.164Z,19.80
2019-03-22T18:34:04.672Z,19.70
2019-03-22T18:36:34.896Z,19.70
2019-03-22T18:39:07.004Z,19.60
2019-03-22T18:41:37.224Z,19.50
2019-03-22T18:44:07.575Z,19.50
2019-03-22T18:46:37.827Z,19.40
2019-03-22T18:49:08.162Z,19.30
2019-03-22T18:51:38.419Z,19.20
2019-03-22T18:54:08.778Z,19.10
2019-03-22T18:56:41.928Z,19.00
2019-03-22T18:59:12.158Z,18.90
2019-03-22T19:01:42.388Z,18.80
2019-03-22T19:04:12.608Z,18.80
2019-03-22T19:06:42.844Z,18.70
2019-03-22T19:09:13.128Z,18.60
2019-03-22T19:11:43.669Z,18.50
2019-03-22T19:14:13.895Z,18.50
2019-03-22T19:16:44.130Z,18.40
2019-03-22T19:19:14.475Z,18.30
2019-03-22T19:21:44.765Z,18.30
2019-03-22T19:24:14.993Z,18.20
2019-03-22T19:26:45.279Z,18.20
2019-03-22T19:29:15.539Z,18.10
2019-03-22T19:31:45.859Z,18.00
2019-03-22T19:34:16.095Z,18.00
2019-03-22T19:36:46.349Z,17.90
2019-03-22T19:39:17.642Z,17.80
2019-03-22T19:41:47.903Z,17.80
2019-03-22T19:44:18.120Z,17.70
2019-03-22T19:46:48.472Z,17.70
2019-03-22T19:49:18.698Z,17.60
2019-03-22T19:51:48.954Z,17.50
2019-03-22T19:54:19.180Z,17.50
2019-03-22T19:56:50.182Z,17.50
2019-03-22T19:59:22.064Z,17.40
2019-03-22T20:01:52.396Z,17.40
2019-03-22T20:04:22.699Z,17.30
2019-03-22T20:06:52.969Z,17.30
2019-03-22T20:09:23.200Z,17.20
2019-03-22T20:11:53.482Z,17.20
2019-03-22T20:14:23.663Z,17.20
2019-03-22T20:16:53.911Z,17.10
2019-03-22T20:19:24.134Z,17.10
2019-03-22T20:21:54.449Z,17.00
2019-03-22T20:24:24.711Z,17.00
2019-03-22T20:26:56.029Z,16.90
2019-03-22T20:29:26.322Z,16.90
2019-03-22T20:31:56.662Z,16.80
2019-03-22T20:34:26.931Z,16.80
2019-03-22T20:36:57.249Z,16.70
2019-03-22T20:39:27.476Z,16.70
2019-03-22T20:41:57.727Z,16.60
2019-03-22T20:44:33.826Z,16.50
2019-03-22T20:47:00.239Z,16.50
2019-03-22T20:49:30.536Z,16.40
2019-03-22T20:52:00.799Z,16.40
2019-03-22T20:54:31.184Z,16.30
2019-03-22T20:57:01.441Z,16.30
2019-03-22T20:59:31.687Z,16.20
2019-03-22T21:02:02.046Z,16.20
2019-03-22T21:04:32.292Z,16.10
2019-03-22T21:07:02.563Z,16.10
2019-03-22T21:09:32.927Z,16.00
2019-03-22T21:12:03.997Z,16.00
2019-03-22T21:14:34.433Z,16.00
2019-03-22T21:17:04.750Z,15.90
2019-03-22T21:19:34.981Z,15.90
2019-03-22T21:22:06.400Z,15.80
2019-03-22T21:24:38.357Z,15.80
2019-03-22T21:27:15.533Z,15.70
2019-03-22T21:29:44.514Z,15.70
2019-03-22T21:32:12.580Z,15.70
2019-03-22T21:34:44.157Z,15.60
2019-03-22T21:37:14.819Z,15.60
2019-03-22T21:39:45.063Z,15.60
2019-03-22T21:42:15.323Z,15.50
2019-03-22T21:44:45.609Z,15.50
2019-03-22T21:47:15.956Z,15.40
2019-03-22T21:49:46.292Z,15.40
2019-03-22T21:52:16.540Z,15.40
2019-03-22T21:54:46.833Z,15.30
2019-03-22T21:57:18.133Z,15.30
2019-03-22T21:59:48.411Z,15.30
2019-03-22T22:02:19.007Z,15.20
2019-03-22T22:04:49.244Z,15.20
2019-03-22T22:07:19.455Z,15.10
2019-03-22T22:09:49.755Z,15.10
2019-03-22T22:12:19.984Z,15.10
2019-03-22T22:14:50.226Z,15.10
2019-03-22T22:17:20.503Z,15.00
2019-03-22T22:19:50.847Z,14.90
2019-03-22T22:22:21.068Z,14.90
2019-03-22T22:24:51.310Z,14.90
2019-03-22T22:27:21.535Z,14.80
2019-03-22T22:29:51.766Z,14.80
2019-03-22T22:32:22.087Z,14.80
2019-03-22T22:34:52.319Z,14.80
2019-03-22T22:37:23.703Z,14.70
2019-03-22T22:39:54.012Z,14.70
2019-03-22T22:42:24.296Z,14.70
2019-03-22T22:44:56.733Z,14.60
2019-03-22T22:47:26.948Z,14.60
2019-03-22T22:49:57.190Z,14.60
2019-03-22T22:52:27.391Z,14.50
2019-03-22T22:54:57.748Z,14.50
2019-03-22T22:57:27.963Z,14.50
2019-03-22T22:59:58.271Z,14.40
2019-03-22T23:02:28.598Z,14.40
2019-03-22T23:04:58.832Z,14.40
2019-03-22T23:07:29.130Z,14.30
2019-03-22T23:09:59.373Z,14.30
2019-03-22T23:12:29.608Z,14.30
2019-03-22T23:15:01.309Z,14.20
2019-03-22T23:17:31.803Z,14.20
2019-03-22T23:20:02.155Z,14.20
2019-03-22T23:22:32.400Z,14.20
2019-03-22T23:25:02.643Z,14.10
2019-03-22T23:27:32.908Z,14.10
2019-03-22T23:30:04.228Z,14.10
2019-03-22T23:32:34.534Z,14.10
2019-03-22T23:35:05.289Z,14.10
2019-03-22T23:37:35.608Z,14.10
2019-03-22T23:40:06.978Z,14.10
2019-03-22T23:42:37.447Z,14.10
2019-03-22T23:45:08.643Z,14.10
2019-03-22T23:47:38.970Z,14.10
2019-03-22T23:50:09.950Z,14.10
2019-03-22T23:52:40.215Z,14.10
2019-03-22T23:55:10.523Z,14.10
2019-03-22T23:57:40.876Z,14.10
